Terminal Aerodrome Forecast
Issued by NWS

Home | Current Version | Previous Version | Text Only | Print | Product List | Glossary On
Versions: 1 2 3 4 5 6 7 8 9 10 11 12 13
000
FTAK31 PAFA 271720
TAFAMC
TAF
PAMC 271720Z 2718/2818 00000KT P6SM BCFG FEW060 SCT120 BKN200
     FM272000 35004KT P6SM FEW040
     FM281200 32005KT 6SM BR BKN050=

USA.gov is the U.S. government's official web portal to all federal, state and local government web resources and services.